Time;durP1;ratioP1;P1;durP2;ratioP2;P2;SDS_P1;SDS_P2;PMS_P1;PMS_P2;Temp;Humidity;BMP_temperature;BMP_pressure;BME280_temperature;BME280_humidity;BME280_pressure;Samples;Min_cycle;Max_cycle;Signal;HPM_P1;HPM_P2
2021/08/03 00:01:51;;;;;;;12.93;9.38;;;25.20;83.20;;;;;;5095210;28;20042;-76
2021/08/03 00:04:22;;;;;;;11.38;9.43;;;25.20;83.10;;;;;;5094906;28;20055;-75
2021/08/03 00:06:54;;;;;;;11.68;9.50;;;25.20;83.10;;;;;;5094572;28;20488;-75
2021/08/03 00:09:23;;;;;;;11.63;9.30;;;25.20;83.00;;;;;;5095506;28;20039;-76
2021/08/03 00:11:50;;;;;;;11.88;8.85;;;25.10;82.90;;;;;;5095148;28;20499;-75
2021/08/03 00:14:17;;;;;;;15.45;9.30;;;25.20;82.90;;;;;;5113213;28;20425;-76
2021/08/03 00:16:44;;;;;;;11.95;8.57;;;25.10;82.80;;;;;;5112985;28;20031;-76
2021/08/03 00:19:10;;;;;;;10.52;9.43;;;25.10;82.90;;;;;;5113207;28;20492;-76
2021/08/03 00:21:36;;;;;;;11.13;8.68;;;25.10;82.80;;;;;;5077908;28;20499;-75
2021/08/03 00:24:03;;;;;;;9.95;8.18;;;25.10;82.50;;;;;;5113589;28;20554;-75
2021/08/03 00:26:29;;;;;;;11.38;8.63;;;25.10;82.60;;;;;;5095165;28;20067;-75
2021/08/03 00:28:55;;;;;;;11.52;8.88;;;25.10;82.50;;;;;;5113295;28;20051;-75
2021/08/03 00:31:23;;;;;;;13.98;8.35;;;25.10;82.50;;;;;;5112549;28;20552;-76
2021/08/03 00:33:53;;;;;;;11.18;8.45;;;25.10;82.40;;;;;;5094764;28;20040;-76
2021/08/03 00:36:25;;;;;;;10.82;8.27;;;25.10;82.30;;;;;;5094499;28;20514;-75
2021/08/03 00:38:53;;;;;;;9.73;7.60;;;25.10;82.40;;;;;;5095513;28;20123;-75
2021/08/03 00:41:28;;;;;;;10.63;7.95;;;25.10;82.30;;;;;;5094734;28;20040;-76
2021/08/03 00:43:56;;;;;;;9.25;8.02;;;25.10;82.20;;;;;;5113414;28;20035;-75
2021/08/03 00:46:22;;;;;;;10.20;7.85;;;25.10;82.10;;;;;;5112796;28;20107;-76
2021/08/03 00:48:48;;;;;;;11.45;7.72;;;25.10;82.00;;;;;;5112707;28;20449;-73
2021/08/03 00:51:14;;;;;;;7.75;6.75;;;25.10;81.90;;;;;;5077315;28;20558;-75
2021/08/03 00:53:44;;;;;;;10.70;7.85;;;25.10;81.90;;;;;;5094923;28;20068;-75
2021/08/03 00:56:10;;;;;;;10.70;6.43;;;25.10;81.80;;;;;;5094760;28;20484;-75
2021/08/03 00:58:39;;;;;;;9.77;6.63;;;25.00;81.70;;;;;;5095050;28;20050;-75
2021/08/03 01:01:06;;;;;;;8.82;6.45;;;25.00;81.60;;;;;;5112178;28;20040;-75
2021/08/03 01:03:32;;;;;;;11.50;6.80;;;25.00;81.60;;;;;;5094518;28;20051;-75
2021/08/03 01:06:04;;;;;;;7.07;6.38;;;25.10;81.60;;;;;;5077591;28;20404;-75
2021/08/03 01:09:05;;;;;;;9.10;6.45;;;25.00;81.50;;;;;;5077259;28;20048;-75
2021/08/03 01:12:07;;;;;;;7.50;6.55;;;24.90;81.60;;;;;;5090140;28;20078;-74
2021/08/03 01:14:44;;;;;;;6.63;6.05;;;24.90;81.70;;;;;;5074347;28;20090;-74
2021/08/03 01:17:23;;;;;;;8.38;5.78;;;24.90;81.40;;;;;;5075894;28;20061;-74
2021/08/03 01:20:09;;;;;;;7.60;6.03;;;24.90;81.00;;;;;;5096096;28;20520;-74
2021/08/03 01:23:06;;;;;;;6.55;5.38;;;24.90;81.00;;;;;;5078449;28;20032;-74
2021/08/03 01:25:53;;;;;;;9.00;6.00;;;24.90;80.80;;;;;;5095910;28;20123;-74
2021/08/03 01:28:30;;;;;;;5.78;4.47;;;24.90;80.60;;;;;;5077405;28;20067;-74
2021/08/03 01:31:04;;;;;;;7.57;5.22;;;25.00;80.60;;;;;;5098452;28;20036;-74
2021/08/03 01:33:33;;;;;;;8.63;4.68;;;24.90;80.40;;;;;;5097988;28;20057;-74
2021/08/03 01:36:05;;;;;;;8.75;4.53;;;24.90;79.90;;;;;;5115706;28;20119;-74
2021/08/03 01:38:36;;;;;;;5.38;4.25;;;24.90;79.50;;;;;;5097471;28;20511;-77
2021/08/03 01:41:05;;;;;;;7.18;5.03;;;24.90;79.50;;;;;;5115650;28;20035;-75
2021/08/03 01:43:35;;;;;;;7.72;4.55;;;24.90;79.50;;;;;;5098332;28;20118;-75
2021/08/03 01:46:04;;;;;;;7.25;4.75;;;24.90;79.50;;;;;;5097717;28;20055;-75
2021/08/03 01:48:34;;;;;;;6.57;4.40;;;24.90;79.40;;;;;;5115827;28;20065;-75
2021/08/03 01:51:05;;;;;;;7.15;4.38;;;24.90;79.30;;;;;;5097453;28;20028;-75
2021/08/03 01:53:34;;;;;;;6.47;4.30;;;24.90;79.10;;;;;;5108345;28;20513;-75
2021/08/03 01:56:01;;;;;;;7.13;4.40;;;24.80;79.20;;;;;;5094219;28;20040;-74
2021/08/03 01:58:30;;;;;;;4.95;3.90;;;24.80;79.30;;;;;;5095688;28;20036;-74
2021/08/03 02:01:03;;;;;;;4.90;4.07;;;24.80;79.20;;;;;;5077218;28;20032;-74
2021/08/03 02:03:32;;;;;;;6.50;4.20;;;24.80;78.90;;;;;;5090771;28;20069;-74
2021/08/03 02:06:23;;;;;;;6.60;4.10;;;24.80;78.90;;;;;;5075483;28;20152;-75
2021/08/03 02:08:50;;;;;;;6.68;3.90;;;24.70;78.50;;;;;;5077782;28;20131;-75
2021/08/03 02:11:28;;;;;;;5.22;3.40;;;24.70;78.30;;;;;;5110669;28;20028;-75
2021/08/03 02:13:57;;;;;;;5.25;3.22;;;24.70;78.40;;;;;;5110836;28;20073;-74
2021/08/03 02:16:33;;;;;;;4.20;3.80;;;24.70;78.30;;;;;;5095475;28;20040;-75
2021/08/03 02:19:03;;;;;;;3.50;3.20;;;24.70;78.20;;;;;;5093468;28;20126;-75
2021/08/03 02:21:36;;;;;;;4.90;3.42;;;24.70;78.20;;;;;;5093356;28;20028;-75
2021/08/03 02:24:03;;;;;;;4.57;3.30;;;24.70;78.10;;;;;;5094886;28;20442;-75
2021/08/03 02:26:29;;;;;;;3.50;3.20;;;24.80;77.90;;;;;;5093253;28;20481;-75
2021/08/03 02:28:57;;;;;;;2.90;2.70;;;24.90;77.50;;;;;;5092985;28;20511;-75
2021/08/03 02:31:33;;;;;;;5.85;2.85;;;24.80;77.30;;;;;;5093306;28;20118;-75
2021/08/03 02:34:09;;;;;;;5.57;2.95;;;24.90;77.00;;;;;;5093495;28;20056;-75
2021/08/03 02:36:45;;;;;;;4.82;2.92;;;24.90;77.10;;;;;;5093042;28;20054;-75
2021/08/03 02:39:18;;;;;;;3.50;2.80;;;24.90;77.00;;;;;;5093173;28;20488;-75
2021/08/03 02:41:45;;;;;;;4.57;2.85;;;24.90;77.00;;;;;;5094308;28;20036;-75
2021/08/03 02:44:12;;;;;;;7.93;3.00;;;25.00;76.70;;;;;;5094448;28;20557;-75
2021/08/03 02:46:41;;;;;;;5.25;2.70;;;25.10;76.30;;;;;;5092934;28;20063;-75
2021/08/03 02:49:14;;;;;;;4.47;2.38;;;25.20;76.30;;;;;;5092909;28;20059;-76
2021/08/03 02:51:41;;;;;;;2.70;2.45;;;25.20;75.80;;;;;;5094458;28;20036;-75
2021/08/03 02:54:29;;;;;;;5.70;2.78;;;25.30;75.30;;;;;;5094206;28;20555;-75
2021/08/03 02:56:57;;;;;;;6.78;2.28;;;25.40;74.60;;;;;;5092531;28;20086;-75
2021/08/03 02:59:26;;;;;;;3.20;2.22;;;25.40;74.50;;;;;;5094188;28;20111;-75
2021/08/03 03:01:56;;;;;;;4.55;2.30;;;25.30;74.20;;;;;;5092651;28;20036;-75
2021/08/03 03:04:55;;;;;;;5.38;2.55;;;25.30;74.30;;;;;;5071921;28;20052;-75
2021/08/03 03:07:32;;;;;;;1.60;1.50;;;25.20;74.40;;;;;;5072266;28;20397;-75
2021/08/03 03:10:00;;;;;;;2.60;1.73;;;25.10;73.80;;;;;;5089936;28;20078;-74
2021/08/03 03:12:30;;;;;;;2.13;2.03;;;25.10;74.20;;;;;;5088961;28;20040;-75
2021/08/03 03:14:59;;;;;;;2.85;1.73;;;25.10;74.40;;;;;;5089190;28;20028;-75
2021/08/03 03:17:30;;;;;;;3.72;1.90;;;25.10;74.20;;;;;;5094249;28;20035;-76
2021/08/03 03:19:58;;;;;;;2.40;1.63;;;25.00;74.10;;;;;;5092341;28;20032;-74
2021/08/03 03:22:28;;;;;;;2.95;2.00;;;25.00;73.80;;;;;;5102383;28;20036;-75
2021/08/03 03:24:57;;;;;;;1.92;1.55;;;24.90;74.00;;;;;;5073302;28;20036;-75
2021/08/03 03:27:26;;;;;;;4.25;1.45;;;24.90;73.80;;;;;;5072893;28;20048;-75
2021/08/03 03:29:53;;;;;;;2.25;1.77;;;24.80;73.80;;;;;;5088922;28;20070;-75
2021/08/03 03:32:21;;;;;;;2.78;1.50;;;24.80;73.90;;;;;;5073274;28;20074;-74
2021/08/03 03:34:49;;;;;;;2.00;1.40;;;24.80;74.00;;;;;;5089092;28;20067;-74
2021/08/03 03:37:15;;;;;;;3.72;1.75;;;24.80;73.90;;;;;;5073235;28;20046;-75
2021/08/03 03:39:42;;;;;;;3.22;1.50;;;24.80;74.00;;;;;;5072775;28;20048;-74
2021/08/03 03:42:08;;;;;;;2.70;1.70;;;24.80;73.50;;;;;;5088775;28;20070;-75
2021/08/03 03:44:40;;;;;;;1.60;1.50;;;24.80;73.40;;;;;;5088650;28;20055;-75
2021/08/03 03:47:24;;;;;;;2.15;1.30;;;24.70;73.40;;;;;;5071586;28;20044;-75
2021/08/03 03:50:11;;;;;;;3.28;1.30;;;24.70;73.10;;;;;;5071978;28;20492;-75
2021/08/03 03:52:45;;;;;;;1.52;1.13;;;24.70;73.10;;;;;;5088569;28;20119;-75
2021/08/03 03:55:17;;;;;;;;;;;24.70;73.30;;;;;;5073685;28;20091;-75
2021/08/03 03:57:44;;;;;;;1.70;1.05;;;24.80;72.20;;;;;;5071556;28;19919;-75
2021/08/03 04:00:13;;;;;;;2.85;1.48;;;24.80;72.00;;;;;;5088367;28;20039;-75
2021/08/03 04:02:51;;;;;;;1.63;0.88;;;24.90;72.10;;;;;;5089636;28;20043;-75
2021/08/03 04:05:20;;;;;;;1.35;0.90;;;25.00;71.40;;;;;;5093214;28;20488;-75
2021/08/03 04:07:52;;;;;;;1.92;0.88;;;25.20;70.50;;;;;;5092669;28;20040;-75
2021/08/03 04:10:30;;;;;;;1.48;1.00;;;25.30;70.30;;;;;;5092003;28;20036;-75
2021/08/03 04:12:58;;;;;;;1.40;1.00;;;25.60;70.40;;;;;;5074975;28;20044;-76
2021/08/03 04:15:24;;;;;;;3.13;1.17;;;25.90;70.20;;;;;;5092704;28;20032;-77
2021/08/03 04:17:51;;;;;;;0.95;0.95;;;26.00;69.50;;;;;;5093105;28;20036;-76
2021/08/03 04:20:17;;;;;;;1.40;0.60;;;26.20;69.70;;;;;;5092883;28;20040;-76
2021/08/03 04:22:43;;;;;;;0.85;0.77;;;26.50;68.70;;;;;;5092554;28;20042;-75
2021/08/03 04:25:09;;;;;;;0.75;0.60;;;26.60;68.90;;;;;;5092534;28;20047;-75
2021/08/03 04:27:35;;;;;;;1.02;0.77;;;26.90;68.10;;;;;;5092502;28;20114;-75
2021/08/03 04:30:01;;;;;;;1.58;0.70;;;27.00;67.50;;;;;;5091336;28;20070;-75
2021/08/03 04:32:27;;;;;;;0.50;0.50;;;27.20;66.40;;;;;;5074362;28;20515;-75
2021/08/03 04:34:53;;;;;;;1.40;0.60;;;27.30;65.90;;;;;;5092456;28;20514;-75
2021/08/03 04:37:19;;;;;;;0.98;0.88;;;27.20;65.40;;;;;;5092363;28;20119;-75
2021/08/03 04:39:45;;;;;;;2.63;0.70;;;27.00;65.80;;;;;;5091613;28;20485;-75
2021/08/03 04:42:11;;;;;;;0.88;0.73;;;26.90;65.70;;;;;;5092793;28;20075;-75
2021/08/03 04:44:37;;;;;;;1.17;0.60;;;26.90;65.90;;;;;;5092627;28;20548;-76
2021/08/03 04:47:04;;;;;;;1.50;0.80;;;26.90;65.80;;;;;;5091892;28;20123;-75
2021/08/03 04:49:31;;;;;;;0.65;0.65;;;26.70;65.60;;;;;;5092528;28;20036;-74
2021/08/03 04:51:57;;;;;;;0.80;0.60;;;26.60;65.40;;;;;;5093793;28;20084;-75
2021/08/03 04:54:23;;;;;;;1.77;0.60;;;26.50;65.40;;;;;;5096734;28;20116;-75
2021/08/03 04:56:49;;;;;;;1.00;0.70;;;26.40;66.10;;;;;;5096285;28;20086;-75
2021/08/03 04:59:15;;;;;;;0.57;0.52;;;26.20;66.40;;;;;;5095481;28;20043;-76
2021/08/03 05:01:41;;;;;;;2.20;0.60;;;26.10;66.40;;;;;;5096061;28;20039;-75
2021/08/03 05:04:07;;;;;;;0.90;0.68;;;26.10;66.40;;;;;;5096316;28;20056;-74
2021/08/03 05:06:33;;;;;;;1.33;0.63;;;26.00;66.30;;;;;;5095562;28;20032;-73
2021/08/03 05:08:58;;;;;;;3.30;1.00;;;26.00;66.90;;;;;;5096181;28;20068;-75
2021/08/03 05:11:24;;;;;;;1.08;0.70;;;25.90;67.10;;;;;;5096162;28;20060;-74
2021/08/03 05:13:50;;;;;;;2.50;1.00;;;25.90;67.80;;;;;;5096132;28;20028;-74
2021/08/03 05:16:16;;;;;;;1.02;1.00;;;25.80;67.40;;;;;;5095698;28;20032;-74
2021/08/03 05:18:42;;;;;;;2.47;0.90;;;25.80;67.40;;;;;;5095951;28;20032;-75
2021/08/03 05:21:08;;;;;;;2.40;0.82;;;25.70;67.30;;;;;;5096465;28;20035;-75
2021/08/03 05:23:34;;;;;;;2.70;0.80;;;25.70;67.30;;;;;;5095752;28;20040;-75
2021/08/03 05:26:00;;;;;;;1.42;0.82;;;25.60;67.60;;;;;;5095806;28;20040;-75
2021/08/03 05:28:26;;;;;;;4.55;0.98;;;25.60;68.10;;;;;;5095379;28;20040;-75
2021/08/03 05:30:52;;;;;;;2.28;1.10;;;25.60;67.90;;;;;;5096005;28;20381;-75
2021/08/03 05:33:18;;;;;;;1.80;0.88;;;25.60;68.50;;;;;;5094883;28;20618;-75
2021/08/03 05:35:44;;;;;;;4.75;1.02;;;25.60;68.80;;;;;;5095855;28;20039;-74
2021/08/03 05:38:10;;;;;;;1.10;1.10;;;25.60;68.70;;;;;;5095478;28;20069;-74
2021/08/03 05:40:36;;;;;;;2.67;1.00;;;25.60;69.10;;;;;;5095493;28;20039;-74
2021/08/03 05:43:02;;;;;;;1.42;1.00;;;25.50;68.90;;;;;;5095279;28;20569;-74
2021/08/03 05:45:28;;;;;;;0.90;0.90;;;25.50;68.80;;;;;;5095504;28;20060;-75
2021/08/03 05:47:54;;;;;;;1.90;0.90;;;25.40;68.60;;;;;;5094300;28;20435;-76
2021/08/03 05:50:20;;;;;;;2.45;0.80;;;25.40;68.80;;;;;;5095366;28;20032;-76
2021/08/03 05:52:46;;;;;;;1.77;0.80;;;25.40;68.70;;;;;;5095298;28;20442;-76
2021/08/03 05:55:12;;;;;;;6.47;1.15;;;25.40;68.70;;;;;;5094083;28;20073;-76
2021/08/03 05:57:38;;;;;;;2.97;1.10;;;25.40;68.70;;;;;;5095322;28;20404;-76
2021/08/03 06:00:05;;;;;;;4.18;1.00;;;25.40;68.70;;;;;;5077860;28;20036;-76
2021/08/03 06:02:39;;;;;;;5.60;1.33;;;25.40;68.80;;;;;;5094211;28;20450;-77
2021/08/03 06:05:05;;;;;;;0.88;0.88;;;25.50;68.30;;;;;;5095103;28;20130;-76
2021/08/03 06:07:41;;;;;;;5.85;1.23;;;25.60;68.70;;;;;;5094851;28;20052;-75
2021/08/03 06:10:15;;;;;;;6.70;1.30;;;25.70;68.70;;;;;;5095063;28;20373;-75
2021/08/03 06:12:53;;;;;;;1.48;1.20;;;25.80;68.60;;;;;;5094656;28;20043;-76
2021/08/03 06:15:19;;;;;;;3.47;0.90;;;25.90;68.50;;;;;;5094829;28;20032;-75
2021/08/03 06:17:50;;;;;;;2.15;0.90;;;25.90;68.10;;;;;;5094948;28;20046;-75
2021/08/03 06:20:17;;;;;;;1.65;1.13;;;25.90;68.10;;;;;;5095234;28;20105;-74
2021/08/03 06:22:42;;;;;;;2.53;1.00;;;25.90;68.20;;;;;;5119724;27;20031;-75
2021/08/03 06:25:13;;;;;;;2.53;1.00;;;25.90;68.20;;;;;;5097654;28;20035;-78
2021/08/03 06:27:41;;;;;;;4.70;0.70;;;25.80;68.20;;;;;;5115053;28;20039;-76
2021/08/03 06:30:08;;;;;;;1.52;0.90;;;25.90;68.10;;;;;;5079933;28;20031;-75
2021/08/03 06:32:34;;;;;;;1.23;0.90;;;25.80;67.90;;;;;;5114852;28;20046;-76
2021/08/03 06:35:01;;;;;;;0.88;0.82;;;25.80;68.00;;;;;;5096560;28;20055;-76
2021/08/03 06:37:27;;;;;;;2.05;0.90;;;25.80;68.00;;;;;;5114425;28;20114;-76
2021/08/03 06:39:53;;;;;;;1.83;0.80;;;25.70;68.00;;;;;;5114665;28;20134;-76
2021/08/03 06:42:25;;;;;;;2.05;1.08;;;25.80;67.90;;;;;;5115046;28;20206;-75
2021/08/03 06:44:58;;;;;;;2.22;1.08;;;25.80;67.90;;;;;;5096376;28;20043;-75
2021/08/03 06:47:28;;;;;;;1.00;0.80;;;25.90;67.80;;;;;;5112989;28;20495;-77
2021/08/03 06:49:58;;;;;;;2.45;0.90;;;25.90;67.80;;;;;;5091270;28;20131;-74
2021/08/03 06:52:24;;;;;;;0.85;0.85;;;26.10;67.40;;;;;;5112639;28;20035;-76
2021/08/03 06:55:03;;;;;;;2.05;0.70;;;26.20;67.30;;;;;;5113342;28;20126;-76
2021/08/03 06:57:35;;;;;;;3.22;0.90;;;26.20;66.90;;;;;;5112651;28;20027;-77
2021/08/03 07:00:08;;;;;;;5.25;1.05;;;26.20;66.90;;;;;;5094589;28;20047;-75
2021/08/03 07:03:16;;;;;;;2.70;0.90;;;26.20;67.80;;;;;;5109764;28;20043;-76
2021/08/03 07:05:53;;;;;;;2.60;0.85;;;26.20;68.10;;;;;;5049841;28;20072;-78
2021/08/03 07:08:20;;;;;;;3.13;0.77;;;26.20;68.00;;;;;;5047151;28;20144;-80
2021/08/03 07:10:51;;;;;;;1.55;0.70;;;26.40;67.30;;;;;;5085800;28;20047;-78
2021/08/03 07:13:18;;;;;;;2.50;1.15;;;26.40;66.20;;;;;;5111261;28;20039;-84
2021/08/03 07:15:46;;;;;;;3.63;0.80;;;26.50;66.70;;;;;;5093343;28;20506;-79
2021/08/03 07:18:13;;;;;;;2.15;0.80;;;26.60;67.20;;;;;;5112445;28;20049;-79
2021/08/03 07:20:42;;;;;;;4.47;0.93;;;26.80;68.10;;;;;;5094223;28;20039;-81
2021/08/03 07:23:10;;;;;;;2.10;1.38;;;27.00;67.30;;;;;;5112838;28;20027;-80
2021/08/03 07:25:36;;;;;;;2.85;1.20;;;27.20;65.70;;;;;;5112415;28;20047;-82
2021/08/03 07:28:02;;;;;;;3.60;1.52;;;27.40;65.20;;;;;;5093944;28;20055;-81
2021/08/03 07:30:28;;;;;;;3.33;0.98;;;27.50;64.60;;;;;;5094383;28;20441;-79
2021/08/03 07:32:54;;;;;;;3.38;1.25;;;27.60;63.60;;;;;;5112121;28;20083;-79
2021/08/03 07:35:20;;;;;;;2.33;0.80;;;27.60;63.50;;;;;;5113521;28;20087;-80
2021/08/03 07:37:46;;;;;;;2.65;0.90;;;27.50;63.40;;;;;;5112908;28;20031;-78
2021/08/03 07:40:13;;;;;;;8.23;1.00;;;27.50;63.90;;;;;;5112188;28;20047;-80
2021/08/03 07:42:39;;;;;;;3.03;0.80;;;27.40;63.50;;;;;;5113935;28;20035;-81
2021/08/03 07:45:05;;;;;;;5.00;1.35;;;27.30;62.90;;;;;;5113639;28;20157;-81
2021/08/03 07:47:32;;;;;;;6.68;1.40;;;27.20;62.20;;;;;;5113290;28;20055;-79
2021/08/03 07:49:58;;;;;;;2.65;1.08;;;27.10;62.70;;;;;;5113869;28;20039;-79
2021/08/03 07:52:25;;;;;;;1.70;0.93;;;27.10;62.70;;;;;;5113345;28;20406;-79
2021/08/03 07:54:51;;;;;;;4.70;0.90;;;27.00;61.90;;;;;;5113546;28;20518;-79
2021/08/03 07:57:17;;;;;;;2.67;1.30;;;27.00;62.70;;;;;;5113888;28;20414;-79
2021/08/03 07:59:43;;;;;;;2.30;1.13;;;27.00;63.10;;;;;;5113488;28;20036;-78
2021/08/03 08:02:09;;;;;;;2.30;1.05;;;27.00;63.40;;;;;;5095062;28;20594;-78
2021/08/03 08:04:35;;;;;;;2.72;1.08;;;26.90;63.70;;;;;;5094809;28;20052;-77
2021/08/03 08:07:01;;;;;;;2.90;0.85;;;26.90;63.50;;;;;;5095033;28;20122;-77
2021/08/03 08:09:27;;;;;;;1.98;0.98;;;26.80;63.00;;;;;;5113247;28;20130;-77
2021/08/03 08:11:53;;;;;;;1.50;1.13;;;26.70;62.90;;;;;;5094826;28;20035;-79
2021/08/03 08:14:19;;;;;;;4.32;1.05;;;26.50;63.60;;;;;;5095657;28;20030;-77
2021/08/03 08:16:45;;;;;;;4.15;1.30;;;26.50;63.40;;;;;;5113590;28;20437;-78
2021/08/03 08:19:10;;;;;;;2.17;1.00;;;26.40;63.50;;;;;;5113183;28;20507;-77
2021/08/03 08:21:36;;;;;;;2.05;1.10;;;26.40;63.50;;;;;;5113312;28;20068;-77
2021/08/03 08:24:04;;;;;;;3.10;1.00;;;26.40;64.00;;;;;;5113099;28;20516;-79
2021/08/03 08:26:30;;;;;;;3.72;0.80;;;26.50;64.40;;;;;;5115664;28;20498;-78
2021/08/03 08:28:56;;;;;;;3.55;0.90;;;26.60;63.90;;;;;;5098852;28;20042;-77
2021/08/03 08:31:22;;;;;;;3.22;0.70;;;26.70;63.20;;;;;;5117524;28;20368;-79
2021/08/03 08:33:48;;;;;;;0.70;0.70;;;26.70;61.50;;;;;;5098814;28;20046;-79
2021/08/03 08:36:14;;;;;;;0.68;0.52;;;26.70;62.40;;;;;;5117585;28;20031;-79
2021/08/03 08:38:40;;;;;;;2.13;0.60;;;26.60;61.70;;;;;;5117157;28;20036;-79
2021/08/03 08:41:10;;;;;;;2.55;0.75;;;26.60;62.20;;;;;;5117163;28;20461;-79
2021/08/03 08:43:36;;;;;;;0.80;0.50;;;26.50;62.50;;;;;;5117285;28;20035;-79
2021/08/03 08:46:02;;;;;;;1.48;0.80;;;26.50;63.10;;;;;;5117428;28;20124;-77
2021/08/03 08:48:29;;;;;;;3.33;0.70;;;26.50;62.90;;;;;;5116826;28;20122;-78
2021/08/03 08:50:55;;;;;;;2.15;0.57;;;26.40;63.10;;;;;;5116910;28;20043;-77
2021/08/03 08:53:25;;;;;;;7.50;1.00;;;26.40;62.70;;;;;;5116480;28;20111;-77
2021/08/03 08:55:51;;;;;;;3.45;1.08;;;26.40;63.30;;;;;;5117014;28;21172;-77
2021/08/03 08:58:17;;;;;;;1.23;1.00;;;26.40;63.40;;;;;;5116375;28;20039;-78
2021/08/03 09:00:44;;;;;;;1.88;0.82;;;26.30;63.40;;;;;;5116420;28;20027;-78
2021/08/03 09:03:10;;;;;;;4.25;1.02;;;26.30;63.30;;;;;;5116721;28;20048;-78
2021/08/03 09:05:37;;;;;;;1.33;0.90;;;26.20;63.80;;;;;;5116501;28;20040;-77
2021/08/03 09:08:04;;;;;;;4.45;0.93;;;26.20;63.80;;;;;;5116215;28;20403;-80
2021/08/03 09:10:38;;;;;;;4.15;0.85;;;26.30;64.30;;;;;;5116641;28;20632;-78
2021/08/03 09:13:09;;;;;;;6.78;0.98;;;26.30;63.60;;;;;;5116498;28;20392;-77
2021/08/03 09:15:36;;;;;;;1.58;0.80;;;26.40;63.30;;;;;;5116476;28;20491;-79
2021/08/03 09:18:18;;;;;;;1.63;0.82;;;26.40;62.40;;;;;;5116222;28;20060;-78
2021/08/03 09:20:46;;;;;;;1.63;0.57;;;26.50;62.70;;;;;;5116393;28;20035;-78
2021/08/03 09:23:12;;;;;;;4.28;0.90;;;26.50;62.80;;;;;;5116118;28;20514;-78
2021/08/03 09:25:39;;;;;;;2.58;0.82;;;26.60;63.20;;;;;;5116095;28;20043;-78
2021/08/03 09:28:07;;;;;;;2.97;1.02;;;26.60;62.70;;;;;;5116110;28;20514;-79
2021/08/03 09:30:36;;;;;;;2.15;0.80;;;26.60;62.70;;;;;;5097911;28;20027;-78
2021/08/03 09:33:02;;;;;;;1.98;0.80;;;26.60;62.20;;;;;;5116053;28;20071;-78
2021/08/03 09:35:30;;;;;;;4.93;1.05;;;26.60;62.10;;;;;;5098238;28;20114;-78
2021/08/03 09:37:57;;;;;;;4.05;1.00;;;26.60;61.70;;;;;;5115553;27;20055;-78
2021/08/03 09:40:32;;;;;;;1.63;0.90;;;26.60;62.30;;;;;;5115889;28;20039;-78
2021/08/03 09:43:12;;;;;;;3.58;1.00;;;26.60;62.40;;;;;;5115731;28;20035;-78
2021/08/03 09:45:44;;;;;;;2.60;0.75;;;26.60;61.70;;;;;;5116061;28;20039;-78
2021/08/03 09:48:12;;;;;;;1.33;0.73;;;26.60;61.40;;;;;;5115954;28;20057;-78
2021/08/03 09:50:58;;;;;;;5.70;1.08;;;26.60;61.30;;;;;;5115894;28;20032;-78
2021/08/03 09:53:42;;;;;;;;;;;26.60;60.60;;;;;;5116513;28;20054;-78
2021/08/03 09:56:17;;;;;;;2.25;0.77;;;26.60;61.70;;;;;;5116274;28;19911;-79
2021/08/03 09:59:12;;;;;;;0.80;0.80;;;26.70;61.10;;;;;;5115725;28;20059;-78
2021/08/03 10:01:40;;;;;;;2.50;0.80;;;26.60;61.00;;;;;;5102522;28;20129;-78
2021/08/03 10:04:11;;;;;;;4.57;1.08;;;26.60;61.40;;;;;;5115704;28;20047;-78
2021/08/03 10:06:40;;;;;;;5.00;1.15;;;26.50;60.40;;;;;;5115533;28;20040;-79
2021/08/03 10:09:08;;;;;;;1.95;0.85;;;26.50;60.90;;;;;;5115340;28;20051;-79
2021/08/03 10:11:35;;;;;;;2.20;0.70;;;26.50;61.30;;;;;;5115290;28;20498;-78
2021/08/03 10:14:01;;;;;;;1.00;0.80;;;26.50;61.80;;;;;;5115063;28;20040;-78
2021/08/03 10:16:27;;;;;;;1.98;0.80;;;26.60;61.70;;;;;;5096849;28;20529;-78
2021/08/03 10:18:56;;;;;;;3.05;1.13;;;26.60;61.50;;;;;;5115235;28;20031;-78
2021/08/03 10:21:32;;;;;;;1.30;0.85;;;26.60;60.90;;;;;;5115083;28;20384;-79
2021/08/03 10:24:13;;;;;;;1.63;0.80;;;26.60;61.10;;;;;;5115194;28;20074;-78
2021/08/03 10:26:39;;;;;;;2.50;1.02;;;26.60;61.00;;;;;;5115560;28;20077;-78
2021/08/03 10:29:25;;;;;;;4.90;1.77;;;26.60;60.60;;;;;;5114941;28;20115;-78
2021/08/03 10:31:52;;;;;;;0.90;0.85;;;26.60;60.40;;;;;;5096875;28;20110;-78
2021/08/03 10:34:43;;;;;;;2.80;0.68;;;26.60;59.30;;;;;;5096636;28;20443;-78
2021/08/03 10:37:10;;;;;;;0.90;0.90;;;26.50;59.80;;;;;;5114986;28;20036;-78
2021/08/03 10:39:51;;;;;;;1.45;1.23;;;26.50;60.10;;;;;;5114734;28;20039;-78
2021/08/03 10:42:19;;;;;;;1.58;0.70;;;26.50;59.80;;;;;;5114808;28;20027;-79
2021/08/03 10:44:51;;;;;;;2.35;0.85;;;26.50;59.30;;;;;;5114496;28;20074;-78
2021/08/03 10:47:39;;;;;;;1.67;0.80;;;26.50;59.00;;;;;;5114974;28;20054;-78
2021/08/03 10:50:11;;;;;;;1.75;0.90;;;26.50;58.80;;;;;;5115252;28;20476;-78
2021/08/03 10:52:52;;;;;;;2.97;0.77;;;26.50;58.80;;;;;;5096526;28;20122;-78
2021/08/03 10:55:39;;;;;;;4.20;1.02;;;26.50;58.90;;;;;;5114916;28;20028;-78
2021/08/03 10:58:12;;;;;;;3.85;1.08;;;26.50;58.70;;;;;;5114537;28;20051;-78
2021/08/03 11:01:02;;;;;;;0.93;0.80;;;26.50;59.20;;;;;;5114831;28;20063;-78
2021/08/03 11:03:35;;;;;;;1.02;1.00;;;26.50;58.40;;;;;;5114131;28;20518;-78
2021/08/03 11:06:04;;;;;;;1.77;1.10;;;26.50;57.90;;;;;;5114384;28;20039;-78
2021/08/03 11:08:31;;;;;;;2.25;1.02;;;26.50;57.00;;;;;;5114030;28;20069;-77
2021/08/03 11:11:05;;;;;;;1.50;1.10;;;26.50;57.80;;;;;;5114277;28;20031;-77
2021/08/03 11:13:41;;;;;;;2.42;1.20;;;26.40;57.10;;;;;;5114004;28;20040;-79
2021/08/03 11:16:33;;;;;;;1.33;1.10;;;26.40;57.80;;;;;;5114498;28;20039;-79
2021/08/03 11:19:03;;;;;;;3.20;1.33;;;26.40;58.40;;;;;;5102780;28;20044;-78
2021/08/03 11:21:30;;;;;;;2.65;0.95;;;26.50;58.30;;;;;;5095752;28;20035;-77
2021/08/03 11:24:14;;;;;;;2.10;1.35;;;26.50;57.80;;;;;;5095434;28;20126;-80
2021/08/03 11:26:47;;;;;;;2.67;1.77;;;26.40;57.10;;;;;;5078804;28;20059;-78
2021/08/03 11:29:15;;;;;;;1.52;1.42;;;26.40;57.80;;;;;;5113783;28;20526;-77
2021/08/03 11:32:08;;;;;;;2.85;1.95;;;26.40;57.30;;;;;;5113822;28;20040;-77
2021/08/03 11:34:42;;;;;;;1.40;1.30;;;26.40;58.00;;;;;;5090266;28;20064;-77
2021/08/03 11:37:19;;;;;;;4.23;1.33;;;26.40;57.70;;;;;;5114384;28;20038;-78
2021/08/03 11:39:57;;;;;;;5.03;1.95;;;26.40;57.20;;;;;;5113984;28;20164;-78
2021/08/03 11:42:41;;;;;;;4.50;1.38;;;26.30;57.40;;;;;;5113753;28;20039;-78
2021/08/03 11:45:14;;;;;;;4.03;1.50;;;26.30;58.00;;;;;;5113664;28;20388;-79
2021/08/03 11:47:56;;;;;;;2.85;1.65;;;26.30;57.70;;;;;;5113835;28;20513;-79
2021/08/03 11:50:39;;;;;;;2.72;1.88;;;26.30;57.90;;;;;;5113700;28;20044;-79
2021/08/03 11:53:11;;;;;;;2.22;1.50;;;26.30;57.80;;;;;;5113393;28;20057;-79
2021/08/03 11:55:43;;;;;;;2.28;1.50;;;26.30;58.30;;;;;;5095649;28;20036;-79
2021/08/03 11:58:10;;;;;;;1.92;1.73;;;26.20;57.60;;;;;;5113357;28;20123;-76
2021/08/03 12:00:37;;;;;;;3.50;1.30;;;26.30;58.40;;;;;;5113023;28;20054;-78
2021/08/03 12:03:03;;;;;;;1.52;1.10;;;26.20;57.60;;;;;;5112992;28;20499;-77
2021/08/03 12:05:31;;;;;;;1.55;1.40;;;26.20;57.90;;;;;;5113288;28;20031;-76
2021/08/03 12:08:05;;;;;;;3.22;1.55;;;26.30;58.60;;;;;;5113093;28;20067;-76
2021/08/03 12:10:39;;;;;;;2.10;1.33;;;26.30;58.10;;;;;;5113437;28;20403;-77
2021/08/03 12:13:11;;;;;;;3.88;1.90;;;26.30;57.40;;;;;;5113263;28;20089;-77
2021/08/03 12:15:48;;;;;;;3.08;1.45;;;26.30;57.40;;;;;;5113337;28;20036;-77
2021/08/03 12:18:15;;;;;;;3.28;1.70;;;26.30;57.30;;;;;;5094936;28;20028;-77
2021/08/03 12:20:50;;;;;;;3.17;1.60;;;26.40;57.80;;;;;;5112743;28;20041;-78
2021/08/03 12:23:34;;;;;;;2.38;1.40;;;26.40;58.00;;;;;;5113456;28;20403;-78
2021/08/03 12:26:04;;;;;;;3.10;1.38;;;26.40;57.90;;;;;;5113112;28;20502;-77
2021/08/03 12:28:44;;;;;;;3.83;1.40;;;26.40;57.60;;;;;;5112941;28;20122;-77
2021/08/03 12:31:30;;;;;;;4.43;1.45;;;26.50;57.40;;;;;;5113136;28;20073;-77
2021/08/03 12:34:18;;;;;;;3.20;1.48;;;26.50;57.20;;;;;;5095077;28;20433;-78
2021/08/03 12:36:52;;;;;;;3.33;1.63;;;26.50;57.40;;;;;;5094634;28;20040;-77
2021/08/03 12:39:20;;;;;;;2.78;1.35;;;26.50;57.40;;;;;;5112836;28;20074;-77
2021/08/03 12:42:02;;;;;;;2.25;1.83;;;26.50;57.40;;;;;;5112939;28;20410;-77
2021/08/03 12:44:30;;;;;;;2.03;1.42;;;26.50;56.60;;;;;;5113015;28;20038;-77
2021/08/03 12:47:09;;;;;;;2.30;1.55;;;26.50;57.00;;;;;;5113008;28;20491;-78
2021/08/03 12:49:38;;;;;;;2.63;1.30;;;26.50;56.90;;;;;;5112445;28;20044;-77
2021/08/03 12:52:18;;;;;;;1.98;1.52;;;26.50;57.00;;;;;;5112854;28;20089;-77
2021/08/03 12:55:09;;;;;;;4.40;1.67;;;26.50;57.10;;;;;;5112873;28;20027;-77
2021/08/03 12:57:53;;;;;;;1.45;1.27;;;26.50;57.40;;;;;;5113113;28;20071;-78
2021/08/03 13:00:48;;;;;;;2.75;1.50;;;26.50;57.30;;;;;;5094859;28;20027;-78
2021/08/03 13:03:16;;;;;;;4.35;1.70;;;26.60;57.60;;;;;;5074863;28;20564;-78
2021/08/03 13:05:43;;;;;;;2.95;1.58;;;26.60;57.50;;;;;;5077682;28;20046;-78